createdAt,value
2023-04-20T00:00:51.265Z,3.43
2023-04-20T00:03:21.986Z,4.00
2023-04-20T00:05:50.612Z,3.67
2023-04-20T00:08:18.830Z,3.40
2023-04-20T00:10:48.220Z,3.63
2023-04-20T00:13:16.293Z,3.43
2023-04-20T00:15:44.223Z,3.60
2023-04-20T00:18:12.178Z,2.90
2023-04-20T00:20:40.236Z,3.20
2023-04-20T00:23:08.500Z,3.47
2023-04-20T00:25:36.475Z,3.83
2023-04-20T00:28:06.212Z,3.80
2023-04-20T00:30:34.225Z,3.37
2023-04-20T00:33:02.279Z,4.00
2023-04-20T00:35:30.587Z,3.23
2023-04-20T00:37:58.511Z,3.30
2023-04-20T00:40:26.415Z,3.57
2023-04-20T00:42:54.341Z,3.57
2023-04-20T00:45:23.781Z,3.87
2023-04-20T00:47:52.195Z,3.53
2023-04-20T00:50:20.206Z,3.87
2023-04-20T00:52:48.273Z,3.80
2023-04-20T00:55:16.328Z,3.83
2023-04-20T00:57:44.471Z,4.50
2023-04-20T01:00:13.009Z,3.93
2023-04-20T01:02:42.692Z,3.37
2023-04-20T01:05:10.896Z,3.40
2023-04-20T01:07:38.865Z,4.30
2023-04-20T01:10:07.581Z,3.97
2023-04-20T01:12:35.635Z,3.93
2023-04-20T01:15:03.880Z,4.13
2023-04-20T01:17:31.858Z,3.40
2023-04-20T01:20:01.322Z,3.70
2023-04-20T01:22:30.665Z,4.17
2023-04-20T01:24:58.565Z,4.00
2023-04-20T01:27:26.540Z,4.20
2023-04-20T01:29:54.480Z,3.97
2023-04-20T01:32:22.930Z,4.37
2023-04-20T01:34:50.971Z,4.30
2023-04-20T01:37:18.876Z,4.27
2023-04-20T01:39:48.294Z,4.17
2023-04-20T01:42:16.279Z,4.33
2023-04-20T01:44:44.223Z,3.80
2023-04-20T01:47:12.184Z,4.60
2023-04-20T01:49:40.977Z,4.33
2023-04-20T01:52:08.907Z,3.90
2023-04-20T01:54:37.680Z,4.90
2023-04-20T01:57:07.068Z,4.27
2023-04-20T01:59:35.048Z,4.03
2023-04-20T02:02:05.889Z,4.90
2023-04-20T02:04:33.969Z,4.80
2023-04-20T02:07:01.900Z,5.20
2023-04-20T02:09:29.837Z,4.33
2023-04-20T02:11:58.344Z,4.60
2023-04-20T02:14:28.073Z,4.80
2023-04-20T02:16:56.005Z,4.43
2023-04-20T02:19:24.417Z,4.87
2023-04-20T02:21:52.335Z,4.23
2023-04-20T02:24:20.296Z,5.00
2023-04-20T02:26:48.216Z,4.90
2023-04-20T02:29:17.630Z,5.23
2023-04-20T02:31:47.261Z,5.20
2023-04-20T02:34:15.224Z,4.30
2023-04-20T02:36:43.165Z,5.03
2023-04-20T02:39:11.270Z,5.63
2023-04-20T02:41:39.245Z,5.13
2023-04-20T02:44:07.303Z,4.80
2023-04-20T02:46:35.316Z,5.30
2023-04-20T02:49:04.850Z,5.50
2023-04-20T02:51:32.909Z,6.03
2023-04-20T02:54:00.854Z,5.70
2023-04-20T02:56:28.821Z,5.47
2023-04-20T02:58:56.726Z,5.30
2023-04-20T03:01:24.745Z,5.40
2023-04-20T03:03:52.810Z,5.57
2023-04-20T03:06:22.530Z,5.80
2023-04-20T03:08:50.532Z,5.43
2023-04-20T03:11:18.427Z,5.37
2023-04-20T03:13:46.348Z,6.00
2023-04-20T03:16:14.401Z,5.53
2023-04-20T03:18:42.382Z,5.83
2023-04-20T03:21:10.339Z,5.67
2023-04-20T03:23:39.659Z,6.70
2023-04-20T03:26:07.864Z,5.83
2023-04-20T03:28:35.828Z,6.53
2023-04-20T03:31:03.728Z,6.17
2023-04-20T03:33:31.742Z,6.17
2023-04-20T03:35:59.774Z,6.80
2023-04-20T03:38:27.705Z,6.47
2023-04-20T03:40:57.021Z,6.67
2023-04-20T03:43:25.002Z,6.57
2023-04-20T03:45:52.940Z,6.30
2023-04-20T03:48:20.840Z,6.30
2023-04-20T03:50:48.813Z,6.57
2023-04-20T03:53:16.746Z,7.00
2023-04-20T03:55:44.642Z,7.63
2023-04-20T03:58:14.029Z,6.43
2023-04-20T04:00:41.979Z,6.47
2023-04-20T04:03:10.250Z,6.87
2023-04-20T04:05:38.428Z,6.87
2023-04-20T04:08:06.797Z,6.80
2023-04-20T04:10:34.938Z,7.63
2023-04-20T04:13:03.000Z,7.93
2023-04-20T04:15:32.410Z,7.50
2023-04-20T04:18:00.422Z,7.33
2023-04-20T04:20:28.440Z,7.33
2023-04-20T04:22:57.601Z,7.87
2023-04-20T04:25:25.531Z,7.50
2023-04-20T04:27:54.746Z,7.07
2023-04-20T04:30:22.688Z,6.97
2023-04-20T04:32:52.107Z,7.03
2023-04-20T04:35:20.205Z,7.20
2023-04-20T04:37:48.228Z,7.17
2023-04-20T04:40:16.403Z,6.83
2023-04-20T04:42:45.533Z,7.17
2023-04-20T04:45:13.874Z,7.20
2023-04-20T04:47:42.507Z,7.00
2023-04-20T04:50:13.142Z,6.23
2023-04-20T04:52:41.090Z,7.77
2023-04-20T04:55:10.055Z,7.57
2023-04-20T04:57:38.817Z,6.67
2023-04-20T05:00:09.775Z,6.30
2023-04-20T05:02:37.923Z,6.80
2023-04-20T05:05:08.198Z,6.47
2023-04-20T05:07:40.318Z,6.17
2023-04-20T05:10:09.049Z,6.13
2023-04-20T05:12:37.147Z,6.00
2023-04-20T05:15:05.402Z,6.17
2023-04-20T05:17:33.315Z,6.17
2023-04-20T05:20:01.443Z,5.07
2023-04-20T05:22:29.647Z,5.37
2023-04-20T05:24:59.045Z,9.17
2023-04-20T05:27:27.014Z,6.20
2023-04-20T05:29:55.001Z,6.03
2023-04-20T05:32:22.983Z,5.53
2023-04-20T05:34:51.000Z,4.97
2023-04-20T05:37:18.965Z,5.17
2023-04-20T05:39:46.883Z,5.20
2023-04-20T05:42:16.204Z,5.23
2023-04-20T05:44:44.220Z,5.00
2023-04-20T05:47:12.327Z,4.53
2023-04-20T05:49:40.779Z,5.07
2023-04-20T05:52:08.766Z,4.80
2023-04-20T05:54:36.701Z,4.43
2023-04-20T05:57:05.909Z,5.00
2023-04-20T05:59:35.322Z,3.87
2023-04-20T06:02:03.315Z,4.40
2023-04-20T06:04:31.933Z,4.40
2023-04-20T06:07:00.340Z,4.00
2023-04-20T06:09:28.321Z,4.67
2023-04-20T06:11:56.266Z,4.40
2023-04-20T06:14:24.222Z,3.90
2023-04-20T06:16:53.568Z,4.30
2023-04-20T06:19:21.530Z,4.00
2023-04-20T06:21:49.725Z,3.90
2023-04-20T06:24:17.746Z,3.37
2023-04-20T06:26:45.766Z,3.47
2023-04-20T06:29:13.692Z,3.43
2023-04-20T06:31:41.649Z,3.50
2023-04-20T06:34:11.140Z,3.40
2023-04-20T06:36:39.032Z,3.20
2023-04-20T06:39:06.992Z,3.30
2023-04-20T06:41:34.937Z,3.27
2023-04-20T06:44:02.933Z,3.87
2023-04-20T06:46:33.992Z,3.57
2023-04-20T06:49:02.102Z,3.13
2023-04-20T06:51:33.016Z,2.90
2023-04-20T06:54:01.133Z,2.97
2023-04-20T06:56:29.100Z,3.53
2023-04-20T06:58:57.130Z,3.40
2023-04-20T07:01:25.082Z,3.30
2023-04-20T07:03:53.173Z,2.90
2023-04-20T07:06:21.260Z,2.87
2023-04-20T07:08:50.566Z,3.00
2023-04-20T07:11:18.501Z,3.07
2023-04-20T07:13:46.471Z,3.17
2023-04-20T07:16:14.470Z,3.20
2023-04-20T07:18:42.499Z,2.57
2023-04-20T07:21:10.510Z,3.00
2023-04-20T07:23:38.384Z,2.83
2023-04-20T07:26:07.820Z,3.00
2023-04-20T07:28:35.726Z,2.57
2023-04-20T07:31:03.700Z,3.23
2023-04-20T07:33:32.362Z,3.00
2023-04-20T07:36:00.581Z,2.90
2023-04-20T07:38:29.065Z,3.10
2023-04-20T07:40:57.120Z,3.33
2023-04-20T07:43:26.486Z,2.90
2023-04-20T07:45:54.444Z,2.60
2023-04-20T07:48:22.425Z,2.70
2023-04-20T07:50:50.707Z,3.00
2023-04-20T07:53:19.245Z,3.33
2023-04-20T07:55:48.163Z,2.93
2023-04-20T07:58:17.656Z,2.33
2023-04-20T08:00:48.637Z,2.90
2023-04-20T08:03:17.267Z,2.90
2023-04-20T08:05:45.544Z,2.40
2023-04-20T08:08:13.596Z,2.50
2023-04-20T08:10:41.520Z,3.10
2023-04-20T08:13:09.415Z,2.80
2023-04-20T08:15:37.426Z,2.93
2023-04-20T08:18:06.906Z,3.10
2023-04-20T08:20:34.913Z,3.00
2023-04-20T08:23:03.073Z,2.60
2023-04-20T08:25:32.705Z,3.30
2023-04-20T08:28:01.097Z,3.07
2023-04-20T08:30:29.229Z,2.67
2023-04-20T08:32:57.431Z,2.57
2023-04-20T08:35:27.193Z,2.50
2023-04-20T08:37:55.213Z,2.40
2023-04-20T08:40:24.621Z,2.30
2023-04-20T08:42:52.529Z,2.50
2023-04-20T08:45:20.677Z,2.23
2023-04-20T08:47:49.216Z,2.83
2023-04-20T08:50:17.831Z,2.60
2023-04-20T08:52:47.275Z,2.73
2023-04-20T08:55:16.775Z,2.50
2023-04-20T08:57:44.825Z,2.60
2023-04-20T09:00:14.141Z,2.73
2023-04-20T09:02:50.134Z,2.30
2023-04-20T09:05:25.757Z,2.63
2023-04-20T09:07:55.874Z,2.80
2023-04-20T09:10:25.387Z,2.80
2023-04-20T09:12:53.762Z,2.60
2023-04-20T09:15:28.432Z,2.37
2023-04-20T09:17:56.729Z,2.70
2023-04-20T09:20:32.131Z,2.53
2023-04-20T09:23:12.005Z,2.60
2023-04-20T09:25:41.187Z,2.80
2023-04-20T09:28:09.262Z,2.90
2023-04-20T09:30:40.805Z,2.80
2023-04-20T09:33:11.096Z,3.07
2023-04-20T09:35:40.613Z,2.70
2023-04-20T09:38:10.131Z,3.60
2023-04-20T09:40:38.250Z,3.10
2023-04-20T09:43:08.880Z,3.13
2023-04-20T09:45:37.024Z,3.47
2023-04-20T09:48:06.799Z,3.50
2023-04-20T09:50:48.664Z,3.00
2023-04-20T09:53:20.182Z,3.13
2023-04-20T09:55:48.882Z,3.43
2023-04-20T09:58:19.158Z,3.43
2023-04-20T10:00:47.225Z,3.27
2023-04-20T10:03:17.989Z,3.33
2023-04-20T10:05:46.412Z,3.87
2023-04-20T10:08:14.337Z,4.33
2023-04-20T10:10:47.821Z,4.67
2023-04-20T10:13:16.265Z,5.60
2023-04-20T10:15:44.246Z,4.90
2023-04-20T10:18:19.329Z,5.27
2023-04-20T10:20:47.621Z,4.83
2023-04-20T10:23:16.501Z,4.60
2023-04-20T10:25:45.578Z,5.20
2023-04-20T10:28:14.957Z,4.90
2023-04-20T10:30:51.361Z,4.60
2023-04-20T10:33:19.893Z,3.87
2023-04-20T10:35:48.743Z,4.47
2023-04-20T10:38:16.843Z,4.23
2023-04-20T10:40:44.745Z,4.40
2023-04-20T10:43:23.630Z,3.73
2023-04-20T10:45:51.631Z,4.57
2023-04-20T10:48:19.596Z,4.70
2023-04-20T10:50:47.509Z,5.27
2023-04-20T10:53:22.098Z,5.03
2023-04-20T10:55:59.272Z,37.00
2023-04-20T10:58:28.857Z,8.93
2023-04-20T11:01:00.263Z,5.13
2023-04-20T11:03:29.092Z,4.70
2023-04-20T11:06:01.098Z,4.47
2023-04-20T11:08:40.618Z,4.17
2023-04-20T11:11:19.264Z,4.20
2023-04-20T11:13:48.934Z,4.23
2023-04-20T11:16:17.723Z,4.13
2023-04-20T11:18:53.420Z,5.20
2023-04-20T11:21:22.081Z,4.57
2023-04-20T11:23:50.148Z,4.60
2023-04-20T11:26:18.252Z,4.80
2023-04-20T11:28:55.973Z,4.63
2023-04-20T11:31:24.742Z,4.70
2023-04-20T11:33:52.852Z,4.47
2023-04-20T11:36:21.684Z,4.63
2023-04-20T11:38:50.275Z,5.03
2023-04-20T11:41:18.420Z,4.87
2023-04-20T11:43:46.799Z,5.20
2023-04-20T11:46:17.108Z,5.63
2023-04-20T11:48:45.415Z,5.13
2023-04-20T11:51:13.431Z,5.47
2023-04-20T11:53:41.582Z,4.93
2023-04-20T11:56:09.926Z,5.17
2023-04-20T11:58:38.489Z,5.33
2023-04-20T12:01:06.935Z,4.70
2023-04-20T12:03:37.385Z,5.00
2023-04-20T12:06:05.741Z,5.77
2023-04-20T12:08:33.687Z,6.10
2023-04-20T12:11:01.606Z,5.03
2023-04-20T12:13:29.833Z,4.90
2023-04-20T12:15:57.795Z,5.53
2023-04-20T12:18:25.818Z,5.83
2023-04-20T12:20:55.216Z,6.20
2023-04-20T12:23:23.223Z,5.60
2023-04-20T12:25:51.426Z,6.00
2023-04-20T12:28:19.422Z,5.30
2023-04-20T12:30:47.401Z,5.17
2023-04-20T12:33:16.890Z,4.93
2023-04-20T12:35:45.186Z,5.33
2023-04-20T12:38:14.856Z,5.50
2023-04-20T12:40:42.829Z,5.17
2023-04-20T12:43:10.769Z,6.07
2023-04-20T12:45:38.706Z,5.43
2023-04-20T12:48:06.913Z,5.57
2023-04-20T12:50:34.871Z,5.40
2023-04-20T12:53:02.785Z,5.50
2023-04-20T12:55:32.342Z,5.20
2023-04-20T12:58:00.405Z,5.53
2023-04-20T13:00:28.546Z,5.27
2023-04-20T13:02:56.701Z,4.90
2023-04-20T13:05:24.828Z,5.30
2023-04-20T13:07:52.784Z,4.70
2023-04-20T13:10:20.770Z,4.00
2023-04-20T13:12:51.877Z,5.00
2023-04-20T13:15:32.065Z,4.83
2023-04-20T13:18:07.171Z,5.33
2023-04-20T13:20:35.133Z,4.70
2023-04-20T13:23:04.053Z,4.73
2023-04-20T13:25:33.530Z,4.90
2023-04-20T13:28:03.110Z,5.30
2023-04-20T13:30:31.176Z,4.07
2023-04-20T13:32:59.422Z,4.67
2023-04-20T13:35:27.600Z,5.07
2023-04-20T13:37:56.012Z,4.77
2023-04-20T13:40:24.535Z,5.67
2023-04-20T13:42:53.147Z,5.10
2023-04-20T13:45:22.768Z,5.47
2023-04-20T13:47:50.873Z,5.03
2023-04-20T13:50:18.905Z,8.93
2023-04-20T13:52:46.932Z,5.03
2023-04-20T13:55:14.840Z,5.33
2023-04-20T13:57:43.526Z,5.37
2023-04-20T14:00:11.860Z,5.40
2023-04-20T14:02:41.431Z,4.70
2023-04-20T14:05:10.594Z,4.80
2023-04-20T14:07:38.847Z,4.77
2023-04-20T14:10:07.597Z,4.33
2023-04-20T14:12:35.717Z,4.43
2023-04-20T14:15:04.462Z,4.70
2023-04-20T14:17:32.461Z,4.10
2023-04-20T14:20:02.006Z,5.27
2023-04-20T14:22:36.748Z,5.20
2023-04-20T14:25:05.121Z,4.27
2023-04-20T14:27:33.121Z,5.43
2023-04-20T14:30:01.035Z,4.50
2023-04-20T14:32:29.083Z,4.40
2023-04-20T14:34:57.027Z,6.73
2023-04-20T14:37:27.538Z,4.60
2023-04-20T14:39:55.809Z,5.27
2023-04-20T14:42:24.016Z,4.20
2023-04-20T14:44:51.997Z,5.23
2023-04-20T14:47:21.021Z,4.53
2023-04-20T14:49:49.004Z,4.30
2023-04-20T14:52:16.996Z,4.20
2023-04-20T14:54:46.371Z,4.20
2023-04-20T14:57:14.348Z,4.03
2023-04-20T14:59:42.552Z,3.70
2023-04-20T15:02:11.022Z,3.87
2023-04-20T15:04:39.301Z,3.50
2023-04-20T15:07:07.375Z,3.83
2023-04-20T15:09:35.376Z,3.80
2023-04-20T15:12:05.005Z,3.60
2023-04-20T15:14:33.064Z,3.50
2023-04-20T15:17:01.051Z,3.70
2023-04-20T15:19:29.136Z,3.90
2023-04-20T15:21:57.264Z,4.03
2023-04-20T15:24:25.213Z,4.90
2023-04-20T15:26:53.194Z,3.63
2023-04-20T15:29:22.541Z,4.10
2023-04-20T15:31:50.541Z,3.90
2023-04-20T15:34:18.817Z,3.50
2023-04-20T15:36:46.930Z,4.10
2023-04-20T15:39:14.854Z,4.23
2023-04-20T15:41:42.762Z,4.57
2023-04-20T15:44:10.735Z,4.30
2023-04-20T15:46:40.118Z,4.90
2023-04-20T15:49:08.076Z,4.40
2023-04-20T15:51:36.047Z,4.57
2023-04-20T15:54:04.038Z,4.23
2023-04-20T15:56:32.069Z,4.53
2023-04-20T15:59:00.012Z,4.50
2023-04-20T16:01:28.234Z,5.93
2023-04-20T16:03:58.081Z,4.30
2023-04-20T16:06:26.741Z,4.90
2023-04-20T16:08:54.848Z,4.63
2023-04-20T16:11:23.041Z,3.77
2023-04-20T16:13:51.070Z,4.07
2023-04-20T16:16:19.173Z,4.00
2023-04-20T16:18:47.179Z,4.30
2023-04-20T16:21:16.683Z,4.20
2023-04-20T16:23:44.677Z,3.80
2023-04-20T16:26:12.645Z,3.77
2023-04-20T16:28:40.583Z,4.00
2023-04-20T16:31:08.579Z,5.50
2023-04-20T16:33:37.526Z,5.40
2023-04-20T16:36:05.720Z,4.97
2023-04-20T16:42:04.256Z,5.50
2023-04-20T16:44:32.161Z,4.33
2023-04-20T16:47:02.011Z,5.40
2023-04-20T16:49:30.221Z,5.00
2023-04-20T16:51:58.430Z,4.57
2023-04-20T16:54:26.997Z,5.07
2023-04-20T16:56:54.973Z,5.50
2023-04-20T16:59:24.383Z,5.10
2023-04-20T17:01:52.349Z,5.73
2023-04-20T17:04:20.751Z,5.30
2023-04-20T17:06:48.926Z,4.13
2023-04-20T17:09:16.920Z,4.43
2023-04-20T17:11:44.826Z,3.90
2023-04-20T17:14:12.768Z,4.40
2023-04-20T17:16:42.153Z,3.90
2023-04-20T17:19:10.176Z,4.80
2023-04-20T17:21:40.351Z,4.67
2023-04-20T17:24:08.267Z,4.37
2023-04-20T17:26:36.244Z,3.57
2023-04-20T17:29:04.931Z,5.10
2023-04-20T17:31:33.646Z,3.57
2023-04-20T17:34:03.523Z,3.70
2023-04-20T17:36:32.084Z,4.00
2023-04-20T17:39:01.342Z,3.73
2023-04-20T17:41:29.392Z,6.43
2023-04-20T17:43:57.269Z,4.13
2023-04-20T17:46:25.264Z,3.90
2023-04-20T17:48:53.283Z,3.80
2023-04-20T17:51:23.005Z,3.10
2023-04-20T17:53:50.957Z,3.73
2023-04-20T17:56:19.091Z,3.13
2023-04-20T17:58:47.992Z,3.10
2023-04-20T18:01:15.907Z,3.23
2023-04-20T18:03:44.193Z,3.77
2023-04-20T18:06:12.326Z,5.90
2023-04-20T18:08:41.725Z,4.20
2023-04-20T18:11:09.909Z,4.20
2023-04-20T18:13:38.173Z,4.20
2023-04-20T18:16:07.573Z,4.20
2023-04-20T18:18:36.022Z,4.53
2023-04-20T18:21:04.839Z,4.53
2023-04-20T18:23:32.819Z,5.00
2023-04-20T18:26:02.149Z,4.60
2023-04-20T18:28:30.566Z,4.97
2023-04-20T18:30:59.119Z,4.70
2023-04-20T18:33:27.621Z,4.93
2023-04-20T18:35:55.573Z,4.90
2023-04-20T18:38:23.474Z,4.87
2023-04-20T18:40:51.412Z,4.80
2023-04-20T18:43:20.716Z,4.23
2023-04-20T18:45:48.799Z,4.40
2023-04-20T18:48:17.047Z,4.73
2023-04-20T18:50:47.349Z,4.27
2023-04-20T18:53:16.191Z,3.93
2023-04-20T18:55:44.115Z,4.47
2023-04-20T18:58:12.096Z,5.07
2023-04-20T19:00:41.595Z,4.23
2023-04-20T19:03:09.789Z,4.73
2023-04-20T19:05:38.506Z,4.83
2023-04-20T19:08:06.505Z,5.43
2023-04-20T19:10:34.446Z,5.30
2023-04-20T19:13:02.417Z,5.10
2023-04-20T19:15:30.417Z,5.47
2023-04-20T19:17:59.911Z,5.87
2023-04-20T19:20:27.979Z,5.33
2023-04-20T19:22:55.926Z,4.97
2023-04-20T19:25:24.052Z,5.67
2023-04-20T19:27:52.109Z,5.53
2023-04-20T19:30:20.131Z,5.97
2023-04-20T19:32:48.161Z,5.93
2023-04-20T19:35:17.618Z,5.10
2023-04-20T19:37:45.562Z,5.47
2023-04-20T19:40:13.600Z,6.00
2023-04-20T19:42:42.513Z,6.77
2023-04-20T19:45:10.691Z,6.00
2023-04-20T19:47:38.811Z,6.00
2023-04-20T19:50:07.399Z,6.43
2023-04-20T19:52:36.812Z,6.37
2023-04-20T19:55:05.166Z,6.53
2023-04-20T19:57:33.376Z,6.87
2023-04-20T20:00:01.294Z,6.87
2023-04-20T20:02:29.416Z,5.93
2023-04-20T20:04:57.477Z,6.70
2023-04-20T20:07:26.620Z,6.90
2023-04-20T20:09:56.122Z,5.70
2023-04-20T20:12:24.460Z,6.30
2023-04-20T20:14:52.504Z,7.27
2023-04-20T20:17:20.590Z,7.60
2023-04-20T20:19:50.060Z,6.90
2023-04-20T20:22:18.012Z,11.40
2023-04-20T20:24:47.585Z,10.67
2023-04-20T20:27:16.899Z,13.10
2023-04-20T20:29:44.868Z,9.10
2023-04-20T20:32:12.870Z,9.53
2023-04-20T20:34:41.553Z,8.23
2023-04-20T20:37:10.518Z,8.07
2023-04-20T20:39:38.565Z,7.70
2023-04-20T20:42:09.009Z,7.90
2023-04-20T20:44:39.155Z,7.50
2023-04-20T20:47:07.485Z,7.57
2023-04-20T20:49:35.518Z,7.27
2023-04-20T20:52:03.536Z,7.53
2023-04-20T20:54:31.540Z,7.50
2023-04-20T20:56:59.460Z,7.17
2023-04-20T20:59:27.444Z,7.53
2023-04-20T21:01:56.853Z,7.87
2023-04-20T21:04:24.854Z,8.83
2023-04-20T21:06:52.789Z,9.10
2023-04-20T21:09:21.074Z,9.17
2023-04-20T21:11:49.200Z,8.13
2023-04-20T21:14:17.127Z,8.17
2023-04-20T21:16:45.114Z,9.30
2023-04-20T21:19:14.405Z,9.87
2023-04-20T21:21:42.312Z,8.40
2023-04-20T21:24:10.280Z,9.40
2023-04-20T21:26:38.499Z,8.63
2023-04-20T21:29:06.536Z,8.73
2023-04-20T21:31:34.563Z,8.43
2023-04-20T21:34:02.528Z,9.10
2023-04-20T21:36:32.976Z,8.47
2023-04-20T21:39:02.689Z,8.40
2023-04-20T21:41:32.313Z,8.43
2023-04-20T21:44:00.699Z,8.53
2023-04-20T21:46:28.641Z,8.07
2023-04-20T21:48:56.563Z,7.43
2023-04-20T21:51:24.471Z,8.30
2023-04-20T21:53:53.762Z,7.97
2023-04-20T21:56:21.680Z,7.83
2023-04-20T21:58:49.686Z,8.93
2023-04-20T22:01:17.904Z,9.17
2023-04-20T22:03:46.175Z,8.30
2023-04-20T22:06:14.299Z,7.73
2023-04-20T22:08:42.211Z,8.40
2023-04-20T22:11:11.504Z,8.27
2023-04-20T22:13:39.412Z,8.50
2023-04-20T22:16:07.539Z,8.47
2023-04-20T22:18:35.483Z,8.47
2023-04-20T22:21:03.501Z,8.77
2023-04-20T22:23:31.377Z,8.80
2023-04-20T22:25:59.286Z,8.30
2023-04-20T22:28:28.577Z,8.83
2023-04-20T22:30:56.976Z,8.53
2023-04-20T22:33:24.953Z,8.53
2023-04-20T22:35:52.823Z,8.70
2023-04-20T22:38:20.791Z,8.20
2023-04-20T22:40:48.711Z,8.60
2023-04-20T22:43:16.641Z,8.73
2023-04-20T22:45:45.972Z,9.40
2023-04-20T22:48:14.058Z,8.80
2023-04-20T22:50:41.935Z,8.63
2023-04-20T22:53:09.823Z,9.23
2023-04-20T22:55:37.767Z,9.57
2023-04-20T22:58:05.683Z,8.90
2023-04-20T23:00:33.697Z,8.23
2023-04-20T23:03:03.283Z,8.33
2023-04-20T23:05:31.355Z,8.80
2023-04-20T23:08:00.793Z,8.43
2023-04-20T23:10:29.915Z,8.80
2023-04-20T23:12:57.888Z,8.53
2023-04-20T23:15:25.807Z,7.87
2023-04-20T23:17:57.347Z,8.53
2023-04-20T23:20:27.129Z,8.13
2023-04-20T23:22:55.003Z,8.20
2023-04-20T23:25:22.919Z,7.53
2023-04-20T23:27:50.859Z,8.17
2023-04-20T23:30:18.762Z,8.50
2023-04-20T23:32:46.717Z,8.53
2023-04-20T23:35:14.837Z,8.03
2023-04-20T23:37:44.165Z,8.13
2023-04-20T23:40:13.040Z,8.23
2023-04-20T23:42:40.967Z,7.70
2023-04-20T23:45:09.528Z,8.07
2023-04-20T23:47:37.519Z,7.50
2023-04-20T23:50:05.759Z,8.70
2023-04-20T23:52:33.661Z,7.67
2023-04-20T23:55:03.013Z,7.83
2023-04-20T23:57:30.957Z,8.50
2023-04-20T23:59:58.884Z,7.80
